createdAt,value
2023-11-22T00:00:52.723Z,21.10
2023-11-22T00:03:34.073Z,17.10
2023-11-22T00:06:04.860Z,18.20
2023-11-22T00:08:32.579Z,18.90
2023-11-22T00:11:00.428Z,20.80
2023-11-22T00:13:28.055Z,18.80
2023-11-22T00:15:55.675Z,21.00
2023-11-22T00:18:23.904Z,18.80
2023-11-22T00:20:51.503Z,16.90
2023-11-22T00:23:19.121Z,23.50
2023-11-22T00:25:46.621Z,20.50
2023-11-22T00:28:14.764Z,22.60
2023-11-22T00:30:42.399Z,22.50
2023-11-22T00:33:10.216Z,17.60
2023-11-22T00:35:37.765Z,19.40
2023-11-22T00:38:05.383Z,18.30
2023-11-22T00:40:32.991Z,23.00
2023-11-22T00:43:00.560Z,20.40
2023-11-22T00:45:28.134Z,20.60
2023-11-22T00:47:55.675Z,21.10
2023-11-22T00:50:23.286Z,17.60
2023-11-22T00:52:50.801Z,19.10
2023-11-22T00:55:18.362Z,20.40
2023-11-22T00:57:46.020Z,20.10
2023-11-22T01:00:14.710Z,18.40
2023-11-22T01:02:42.396Z,19.90
2023-11-22T01:05:13.798Z,19.40
2023-11-22T01:07:41.384Z,16.30
2023-11-22T01:10:09.585Z,18.20
2023-11-22T01:12:37.173Z,17.60
2023-11-22T01:15:06.847Z,19.00
2023-11-22T01:17:35.548Z,18.40
2023-11-22T01:20:04.714Z,16.90
2023-11-22T01:22:32.400Z,20.40
2023-11-22T01:24:59.963Z,23.70
2023-11-22T01:27:28.620Z,18.90
2023-11-22T01:29:56.228Z,22.20
2023-11-22T01:32:23.871Z,22.20
2023-11-22T01:34:51.434Z,20.40
2023-11-22T01:37:18.981Z,20.30
2023-11-22T01:39:47.296Z,20.20
2023-11-22T01:42:15.803Z,19.00
2023-11-22T01:44:43.338Z,17.30
2023-11-22T01:47:11.310Z,26.00
2023-11-22T01:49:39.287Z,19.60
2023-11-22T01:52:07.473Z,18.40
2023-11-22T01:54:35.058Z,18.80
2023-11-22T01:57:03.422Z,32.70
2023-11-22T01:59:32.615Z,19.60
2023-11-22T02:02:00.589Z,20.10
2023-11-22T02:04:28.834Z,20.50
2023-11-22T02:06:56.695Z,28.40
2023-11-22T02:09:24.225Z,22.50
2023-11-22T02:11:51.737Z,21.20
2023-11-22T02:14:20.028Z,20.50
2023-11-22T02:16:47.669Z,18.90
2023-11-22T02:19:17.490Z,20.90
2023-11-22T02:21:46.354Z,19.30
2023-11-22T02:24:13.993Z,17.00
2023-11-22T02:26:46.842Z,22.80
2023-11-22T02:29:15.752Z,22.20
2023-11-22T02:31:46.346Z,20.20
2023-11-22T02:34:14.026Z,20.90
2023-11-22T02:36:51.204Z,17.80
2023-11-22T02:39:31.009Z,19.30
2023-11-22T02:41:59.711Z,19.60
2023-11-22T02:44:27.911Z,18.70
2023-11-22T02:46:55.581Z,18.70
2023-11-22T02:49:23.139Z,33.30
2023-11-22T02:51:51.352Z,23.90
2023-11-22T02:54:18.916Z,21.80
2023-11-22T02:56:46.535Z,20.20
2023-11-22T02:59:15.093Z,19.10
2023-11-22T03:01:44.101Z,23.20
2023-11-22T03:04:11.927Z,20.70
2023-11-22T03:06:39.473Z,23.80
2023-11-22T03:09:09.389Z,20.80
2023-11-22T03:11:37.859Z,20.00
2023-11-22T03:14:05.617Z,19.90
2023-11-22T03:16:34.187Z,20.50
2023-11-22T03:19:02.873Z,21.30
2023-11-22T03:21:30.674Z,19.30
2023-11-22T03:23:59.292Z,20.70
2023-11-22T03:26:26.901Z,18.20
2023-11-22T03:28:54.481Z,19.00
2023-11-22T03:31:22.462Z,17.60
2023-11-22T03:33:50.060Z,20.10
2023-11-22T03:36:17.614Z,17.70
2023-11-22T03:38:45.948Z,17.60
2023-11-22T03:41:13.563Z,33.20
2023-11-22T03:43:41.164Z,23.00
2023-11-22T03:46:08.794Z,31.00
2023-11-22T03:48:36.363Z,17.90
2023-11-22T03:51:04.551Z,19.90
2023-11-22T03:53:33.266Z,22.10
2023-11-22T03:56:00.970Z,18.00
2023-11-22T03:58:28.732Z,17.90
2023-11-22T04:00:56.927Z,18.00
2023-11-22T04:03:24.563Z,22.00
2023-11-22T04:05:52.280Z,24.50
2023-11-22T04:08:21.329Z,23.80
2023-11-22T04:10:48.909Z,22.60
2023-11-22T04:13:16.467Z,18.80
2023-11-22T04:15:44.665Z,16.40
2023-11-22T04:18:12.794Z,35.60
2023-11-22T04:20:41.206Z,60.40
2023-11-22T04:23:11.781Z,42.40
2023-11-22T04:25:40.167Z,31.70
2023-11-22T04:28:09.878Z,28.60
2023-11-22T04:30:37.496Z,25.00
2023-11-22T04:33:05.178Z,33.90
2023-11-22T04:35:37.253Z,31.00
2023-11-22T04:38:05.041Z,30.80
2023-11-22T04:40:32.692Z,36.30
2023-11-22T04:43:00.372Z,34.60
2023-11-22T04:45:27.952Z,40.00
2023-11-22T04:47:58.343Z,64.70
2023-11-22T04:50:26.143Z,102.80
2023-11-22T04:52:54.014Z,97.20
2023-11-22T04:55:21.587Z,65.70
2023-11-22T04:57:49.227Z,43.20
2023-11-22T05:00:18.378Z,147.30
2023-11-22T05:02:46.104Z,172.40
2023-11-22T05:05:13.925Z,67.10
2023-11-22T05:07:41.732Z,32.60
2023-11-22T05:10:10.957Z,21.60
2023-11-22T05:12:38.608Z,22.20
2023-11-22T05:15:08.547Z,23.90
2023-11-22T05:17:36.446Z,26.00
2023-11-22T05:20:06.204Z,22.80
2023-11-22T05:22:33.813Z,22.10
2023-11-22T05:25:01.730Z,20.10
2023-11-22T05:27:29.921Z,23.20
2023-11-22T05:29:57.594Z,23.10
2023-11-22T05:32:25.229Z,33.00
2023-11-22T05:34:52.879Z,49.10
2023-11-22T05:37:22.164Z,40.10
2023-11-22T05:39:50.000Z,239.20
2023-11-22T05:42:18.960Z,325.90
2023-11-22T05:44:46.639Z,198.80
2023-11-22T05:47:14.853Z,76.00
2023-11-22T05:49:42.561Z,25.40
2023-11-22T05:52:10.142Z,24.60
2023-11-22T05:54:37.860Z,28.10
2023-11-22T05:57:05.796Z,23.40
2023-11-22T05:59:33.386Z,24.40
2023-11-22T06:02:01.153Z,23.30
2023-11-22T06:04:28.839Z,27.60
2023-11-22T06:06:56.556Z,24.40
2023-11-22T06:09:24.247Z,33.10
2023-11-22T06:11:51.813Z,34.20
2023-11-22T06:14:20.653Z,33.00
2023-11-22T06:16:48.424Z,46.20
2023-11-22T06:19:16.763Z,30.90
2023-11-22T06:21:44.477Z,47.80
2023-11-22T06:24:17.273Z,51.40
2023-11-22T06:26:47.962Z,79.40
2023-11-22T06:29:18.754Z,98.90
2023-11-22T06:31:46.341Z,95.80
2023-11-22T06:34:14.014Z,42.90
2023-11-22T06:36:41.886Z,26.10
2023-11-22T06:39:10.328Z,24.60
2023-11-22T06:41:38.251Z,22.90
2023-11-22T06:44:06.209Z,26.60
2023-11-22T06:46:34.029Z,25.50
2023-11-22T06:49:01.730Z,27.10
2023-11-22T06:51:29.422Z,27.20
2023-11-22T06:53:58.962Z,28.60
2023-11-22T06:56:26.914Z,30.60
2023-11-22T06:58:55.556Z,41.70
2023-11-22T07:01:27.823Z,41.00
2023-11-22T07:03:58.954Z,60.30
2023-11-22T07:06:29.811Z,70.20
2023-11-22T07:08:59.434Z,58.20
2023-11-22T07:11:34.947Z,56.10
2023-11-22T07:14:05.113Z,47.40
2023-11-22T07:16:34.678Z,339.80
2023-11-22T07:19:10.881Z,244.70
2023-11-22T07:21:53.279Z,123.50
2023-11-22T07:24:35.403Z,95.20
2023-11-22T07:28:01.093Z,103.30
2023-11-22T07:30:37.424Z,59.30
2023-11-22T07:33:09.653Z,76.40
2023-11-22T07:35:45.453Z,102.40
2023-11-22T07:38:13.436Z,94.40
2023-11-22T07:40:42.759Z,92.70
2023-11-22T07:43:10.411Z,74.10
2023-11-22T07:45:39.361Z,71.50
2023-11-22T07:48:08.585Z,76.10
2023-11-22T07:50:40.298Z,93.70
2023-11-22T07:53:10.257Z,130.80
2023-11-22T07:55:39.064Z,146.70
2023-11-22T07:58:09.782Z,124.60
2023-11-22T08:00:42.991Z,89.80
2023-11-22T08:03:10.812Z,56.20
2023-11-22T08:05:41.361Z,45.40
2023-11-22T08:08:09.747Z,39.70
2023-11-22T08:10:38.635Z,41.50
2023-11-22T08:13:06.368Z,42.50
2023-11-22T08:15:34.161Z,56.20
2023-11-22T08:18:02.157Z,46.10
2023-11-22T08:20:32.023Z,62.30
2023-11-22T08:23:01.072Z,38.80
2023-11-22T08:25:32.705Z,61.00
2023-11-22T08:28:09.241Z,65.20
2023-11-22T08:30:43.525Z,49.00
2023-11-22T08:33:12.812Z,38.40
2023-11-22T08:35:40.896Z,44.20
2023-11-22T08:38:10.590Z,37.80
2023-11-22T08:40:39.224Z,22.10
2023-11-22T08:43:07.048Z,51.10
2023-11-22T08:45:35.741Z,78.90
2023-11-22T08:48:04.562Z,35.10
2023-11-22T08:50:32.894Z,28.60
2023-11-22T08:53:01.917Z,38.70
2023-11-22T08:55:29.678Z,36.90
2023-11-22T08:57:57.320Z,55.60
2023-11-22T09:00:29.095Z,24.90
2023-11-22T09:02:57.180Z,41.20
2023-11-22T09:05:25.802Z,18.40
2023-11-22T09:07:56.545Z,14.40
2023-11-22T09:10:24.451Z,18.60
2023-11-22T09:12:54.455Z,20.70
2023-11-22T09:15:27.209Z,13.10
2023-11-22T09:17:54.872Z,26.00
2023-11-22T09:20:22.658Z,36.10
2023-11-22T09:22:55.624Z,116.70
2023-11-22T09:25:25.404Z,30.80
2023-11-22T09:28:00.271Z,24.10
2023-11-22T09:30:36.377Z,21.40
2023-11-22T09:33:06.499Z,24.40
2023-11-22T09:35:35.293Z,26.80
2023-11-22T09:38:05.367Z,19.40
2023-11-22T09:40:33.143Z,24.00
2023-11-22T09:43:02.971Z,22.20
2023-11-22T09:45:32.323Z,17.30
2023-11-22T09:48:02.691Z,17.30
2023-11-22T09:50:42.137Z,29.10
2023-11-22T09:53:19.340Z,18.80
2023-11-22T09:55:47.441Z,18.30
2023-11-22T09:58:17.421Z,32.00
2023-11-22T10:00:45.177Z,14.80
2023-11-22T10:03:15.557Z,14.60
2023-11-22T10:05:43.784Z,24.90
2023-11-22T10:08:11.489Z,37.00
2023-11-22T10:10:41.134Z,34.70
2023-11-22T10:13:10.930Z,31.10
2023-11-22T10:15:38.483Z,23.50
2023-11-22T10:18:08.269Z,27.10
2023-11-22T10:20:41.334Z,32.00
2023-11-22T10:23:11.118Z,21.30
2023-11-22T10:25:54.778Z,53.60
2023-11-22T10:28:26.503Z,33.30
2023-11-22T10:30:54.595Z,56.40
2023-11-22T10:33:24.050Z,45.40
2023-11-22T10:35:52.598Z,37.00
2023-11-22T10:38:21.397Z,33.30
2023-11-22T10:40:49.051Z,31.80
2023-11-22T10:43:17.731Z,25.20
2023-11-22T10:45:54.432Z,14.00
2023-11-22T10:48:22.294Z,31.00
2023-11-22T10:50:50.961Z,88.20
2023-11-22T10:53:27.052Z,27.60
2023-11-22T10:56:13.654Z,18.90
2023-11-22T10:58:49.786Z,25.00
2023-11-22T11:01:18.274Z,17.20
2023-11-22T11:04:02.168Z,20.60
2023-11-22T11:06:34.631Z,14.20
2023-11-22T11:09:11.567Z,14.90
2023-11-22T11:11:42.245Z,17.20
2023-11-22T11:14:12.508Z,16.70
2023-11-22T11:16:49.285Z,22.60
2023-11-22T11:19:23.215Z,13.40
2023-11-22T11:21:50.983Z,18.30
2023-11-22T11:24:19.400Z,17.70
2023-11-22T11:26:55.485Z,20.10
2023-11-22T11:29:43.845Z,20.90
2023-11-22T11:32:14.372Z,35.60
2023-11-22T11:34:50.662Z,23.40
2023-11-22T11:37:22.118Z,27.00
2023-11-22T11:39:50.383Z,26.10
2023-11-22T11:42:21.288Z,20.20
2023-11-22T11:45:06.107Z,13.70
2023-11-22T11:47:35.031Z,24.40
2023-11-22T11:50:03.667Z,17.80
2023-11-22T11:52:34.194Z,36.10
2023-11-22T11:55:02.136Z,18.10
2023-11-22T11:57:33.403Z,18.40
2023-11-22T12:00:01.626Z,17.10
2023-11-22T12:02:30.156Z,18.60
2023-11-22T12:04:57.793Z,24.50
2023-11-22T12:07:25.320Z,23.30
2023-11-22T12:09:52.923Z,14.50
2023-11-22T12:12:20.548Z,23.90
2023-11-22T12:14:48.276Z,17.80
2023-11-22T12:17:17.373Z,18.30
2023-11-22T12:19:44.975Z,18.40
2023-11-22T12:22:13.211Z,17.60
2023-11-22T12:24:40.872Z,16.40
2023-11-22T12:27:11.185Z,29.50
2023-11-22T12:29:42.783Z,20.70
2023-11-22T12:32:10.565Z,16.00
2023-11-22T12:34:38.238Z,17.90
2023-11-22T12:37:08.791Z,18.70
2023-11-22T12:39:38.030Z,20.70
2023-11-22T12:42:10.810Z,18.30
2023-11-22T12:44:50.675Z,18.30
2023-11-22T12:47:38.909Z,19.70
2023-11-22T12:50:30.610Z,17.40
2023-11-22T12:53:00.153Z,19.50
2023-11-22T12:55:28.485Z,25.50
2023-11-22T12:58:04.540Z,29.30
2023-11-22T13:00:32.413Z,19.60
2023-11-22T13:03:03.774Z,19.30
2023-11-22T13:05:32.615Z,46.10
2023-11-22T13:08:02.769Z,13.20
2023-11-22T13:10:35.037Z,14.90
2023-11-22T13:13:02.989Z,18.70
2023-11-22T13:15:31.096Z,25.90
2023-11-22T13:18:00.157Z,18.70
2023-11-22T13:20:28.980Z,16.30
2023-11-22T13:22:57.066Z,19.70
2023-11-22T13:25:24.843Z,27.00
2023-11-22T13:27:53.950Z,22.10
2023-11-22T13:30:24.119Z,25.90
2023-11-22T13:32:59.653Z,23.90
2023-11-22T13:35:32.005Z,30.50
2023-11-22T13:38:02.828Z,20.10
2023-11-22T13:40:35.014Z,21.80
2023-11-22T13:43:04.815Z,22.10
2023-11-22T13:45:32.647Z,22.00
2023-11-22T13:48:05.770Z,19.00
2023-11-22T13:50:34.341Z,37.30
2023-11-22T13:53:04.958Z,31.70
2023-11-22T13:55:32.839Z,21.90
2023-11-22T13:58:01.298Z,20.20
2023-11-22T14:00:34.473Z,28.70
2023-11-22T14:03:07.676Z,24.00
2023-11-22T14:05:38.717Z,72.20
2023-11-22T14:08:07.559Z,63.20
2023-11-22T14:10:36.138Z,45.00
2023-11-22T14:13:05.280Z,60.00
2023-11-22T14:15:33.561Z,48.90
2023-11-22T14:18:01.476Z,38.20
2023-11-22T14:20:30.704Z,28.30
2023-11-22T14:22:58.487Z,40.40
2023-11-22T14:25:27.686Z,79.00
2023-11-22T14:27:57.217Z,86.10
2023-11-22T14:30:28.005Z,194.40
2023-11-22T14:32:56.331Z,112.00
2023-11-22T14:35:24.404Z,150.80
2023-11-22T14:37:53.953Z,193.40
2023-11-22T14:40:21.743Z,131.00
2023-11-22T14:42:51.421Z,43.30
2023-11-22T14:45:21.194Z,33.50
2023-11-22T14:47:52.579Z,26.80
2023-11-22T14:50:22.023Z,51.70
2023-11-22T14:52:50.905Z,30.10
2023-11-22T14:55:20.598Z,40.60
2023-11-22T14:57:48.667Z,28.40
2023-11-22T15:00:16.607Z,23.90
2023-11-22T15:02:44.534Z,22.90
2023-11-22T15:05:13.681Z,28.30
2023-11-22T15:07:43.243Z,30.30
2023-11-22T15:10:12.368Z,26.60
2023-11-22T15:12:43.471Z,17.00
2023-11-22T15:15:12.264Z,16.90
2023-11-22T15:17:40.942Z,25.50
2023-11-22T15:20:12.635Z,34.00
2023-11-22T15:22:41.583Z,27.20
2023-11-22T15:25:10.931Z,25.20
2023-11-22T15:27:39.776Z,25.00
2023-11-22T15:30:09.970Z,35.00
2023-11-22T15:32:37.692Z,65.90
2023-11-22T15:35:06.378Z,48.60
2023-11-22T15:37:34.489Z,55.30
2023-11-22T15:40:02.722Z,26.60
2023-11-22T15:42:30.726Z,47.10
2023-11-22T15:44:58.681Z,16.90
2023-11-22T15:47:26.557Z,15.30
2023-11-22T15:49:56.836Z,22.60
2023-11-22T15:52:24.567Z,19.00
2023-11-22T15:54:52.201Z,21.70
2023-11-22T15:57:19.855Z,22.90
2023-11-22T15:59:49.985Z,20.00
2023-11-22T16:02:18.618Z,15.00
2023-11-22T16:04:47.350Z,14.80
2023-11-22T16:07:16.035Z,21.10
2023-11-22T16:09:44.326Z,23.60
2023-11-22T16:12:19.477Z,22.70
2023-11-22T16:14:47.709Z,20.30
2023-11-22T16:17:16.817Z,21.70
2023-11-22T16:19:46.440Z,23.00
2023-11-22T16:22:14.082Z,20.70
2023-11-22T16:24:41.849Z,22.20
2023-11-22T16:27:09.659Z,39.40
2023-11-22T16:29:38.022Z,31.30
2023-11-22T16:32:06.878Z,97.00
2023-11-22T16:34:35.081Z,78.00
2023-11-22T16:37:03.319Z,37.90
2023-11-22T16:39:31.479Z,38.60
2023-11-22T16:41:59.201Z,48.70
2023-11-22T16:44:26.831Z,74.10
2023-11-22T16:46:54.467Z,64.40
2023-11-22T16:49:22.273Z,52.50
2023-11-22T16:51:49.850Z,49.00
2023-11-22T16:54:18.484Z,79.70
2023-11-22T16:56:46.208Z,53.10
2023-11-22T16:59:13.896Z,44.80
2023-11-22T17:01:41.593Z,38.90
2023-11-22T17:04:09.461Z,49.30
2023-11-22T17:06:37.726Z,33.20
2023-11-22T17:09:05.981Z,54.90
2023-11-22T17:11:33.822Z,37.30
2023-11-22T17:14:01.412Z,32.90
2023-11-22T17:16:30.937Z,27.50
2023-11-22T17:18:58.528Z,36.30
2023-11-22T17:21:26.127Z,33.70
2023-11-22T17:23:53.806Z,49.30
2023-11-22T17:26:21.609Z,31.60
2023-11-22T17:28:49.350Z,33.20
2023-11-22T17:31:16.942Z,44.30
2023-11-22T17:33:44.988Z,36.40
2023-11-22T17:36:14.681Z,38.40
2023-11-22T17:38:42.446Z,42.10
2023-11-22T17:41:11.613Z,42.80
2023-11-22T17:43:39.224Z,44.30
2023-11-22T17:46:10.766Z,64.90
2023-11-22T17:48:38.820Z,92.40
2023-11-22T17:51:06.788Z,128.70
2023-11-22T17:53:34.421Z,56.20
2023-11-22T17:56:02.839Z,35.50
2023-11-22T17:58:32.306Z,34.70
2023-11-22T18:00:59.959Z,58.10
2023-11-22T18:03:27.804Z,38.00
2023-11-22T18:05:55.633Z,42.60
2023-11-22T18:08:26.636Z,36.50
2023-11-22T18:10:54.151Z,33.10
2023-11-22T18:13:22.044Z,32.90
2023-11-22T18:15:50.252Z,76.80
2023-11-22T18:18:17.890Z,39.20
2023-11-22T18:20:46.097Z,53.30
2023-11-22T18:23:14.694Z,42.60
2023-11-22T18:25:42.360Z,38.30
2023-11-22T18:28:13.130Z,48.40
2023-11-22T18:30:41.248Z,48.60
2023-11-22T18:33:13.041Z,52.40
2023-11-22T18:35:41.658Z,37.40
2023-11-22T18:38:09.772Z,40.80
2023-11-22T18:40:37.370Z,34.30
2023-11-22T18:43:07.252Z,35.20
2023-11-22T18:45:35.394Z,31.50
2023-11-22T18:48:04.233Z,28.00
2023-11-22T18:50:32.256Z,33.50
2023-11-22T18:53:00.697Z,26.40
2023-11-22T18:55:28.442Z,25.30
2023-11-22T18:57:56.777Z,28.30
2023-11-22T19:00:24.522Z,29.20
2023-11-22T19:02:52.511Z,30.80
2023-11-22T19:05:20.381Z,30.40
2023-11-22T19:07:52.012Z,38.60
2023-11-22T19:10:20.377Z,31.50
2023-11-22T19:12:47.959Z,28.90
2023-11-22T19:15:15.604Z,40.80
2023-11-22T19:17:43.308Z,32.70
2023-11-22T19:20:11.759Z,33.30
2023-11-22T19:22:41.243Z,31.70
2023-11-22T19:25:13.387Z,29.30
2023-11-22T19:27:41.020Z,31.10
2023-11-22T19:30:09.363Z,32.20
2023-11-22T19:32:37.481Z,31.10
2023-11-22T19:35:06.664Z,32.80
2023-11-22T19:37:34.470Z,27.20
2023-11-22T19:40:05.195Z,28.60
2023-11-22T19:42:35.441Z,31.50
2023-11-22T19:45:03.255Z,224.60
2023-11-22T19:47:32.366Z,159.40
2023-11-22T19:50:01.554Z,49.00
2023-11-22T19:52:29.125Z,40.90
2023-11-22T19:54:56.698Z,31.00
2023-11-22T19:57:24.441Z,34.90
2023-11-22T19:59:52.049Z,34.00
2023-11-22T20:02:21.449Z,26.50
2023-11-22T20:04:49.770Z,33.70
2023-11-22T20:07:17.433Z,33.50
2023-11-22T20:09:45.126Z,39.80
2023-11-22T20:12:12.703Z,34.60
2023-11-22T20:14:40.361Z,37.00
2023-11-22T20:17:10.375Z,38.00
2023-11-22T20:19:37.943Z,41.40
2023-11-22T20:22:05.523Z,33.40
2023-11-22T20:24:33.150Z,26.90
2023-11-22T20:27:01.067Z,28.00
2023-11-22T20:29:28.719Z,27.80
2023-11-22T20:31:56.282Z,33.60
2023-11-22T20:34:24.157Z,25.70
2023-11-22T20:36:51.905Z,34.20
2023-11-22T20:39:21.126Z,30.30
2023-11-22T20:41:48.846Z,31.90
2023-11-22T20:44:17.274Z,29.70
2023-11-22T20:46:46.596Z,30.80
2023-11-22T20:49:15.378Z,29.50
2023-11-22T20:51:43.770Z,29.90
2023-11-22T20:54:11.351Z,31.20
2023-11-22T20:56:38.947Z,27.40
2023-11-22T20:59:06.647Z,35.00
2023-11-22T21:01:34.321Z,29.90
2023-11-22T21:04:02.284Z,31.00
2023-11-22T21:06:30.105Z,38.80
2023-11-22T21:08:57.720Z,33.60
2023-11-22T21:11:25.582Z,27.00
2023-11-22T21:13:53.160Z,27.20
2023-11-22T21:16:22.843Z,27.20
2023-11-22T21:18:51.573Z,33.70
2023-11-22T21:21:19.305Z,25.40
2023-11-22T21:23:46.946Z,40.40
2023-11-22T21:26:16.852Z,30.10
2023-11-22T21:28:44.409Z,26.80
2023-11-22T21:31:18.865Z,26.20
2023-11-22T21:33:47.161Z,26.00
2023-11-22T21:36:16.021Z,24.40
2023-11-22T21:38:44.261Z,25.80
2023-11-22T21:41:15.043Z,24.50
2023-11-22T21:43:42.983Z,22.00
2023-11-22T21:46:19.350Z,21.20
2023-11-22T21:48:47.270Z,24.50
2023-11-22T21:51:15.395Z,22.20
2023-11-22T21:53:43.002Z,22.00
2023-11-22T21:56:10.661Z,14.80
2023-11-22T21:58:38.203Z,20.60
2023-11-22T22:01:11.021Z,18.70
2023-11-22T22:03:42.836Z,23.00
2023-11-22T22:06:11.025Z,19.80
2023-11-22T22:08:39.133Z,28.60
2023-11-22T22:11:06.853Z,25.40
2023-11-22T22:13:34.646Z,23.20
2023-11-22T22:16:02.193Z,26.50
2023-11-22T22:18:29.951Z,29.10
2023-11-22T22:20:57.703Z,25.60
2023-11-22T22:23:25.270Z,35.70
2023-11-22T22:25:52.789Z,24.70
2023-11-22T22:28:20.387Z,24.70
2023-11-22T22:30:47.994Z,32.50
2023-11-22T22:33:15.807Z,27.00
2023-11-22T22:35:44.445Z,24.70
2023-11-22T22:38:12.004Z,25.20
2023-11-22T22:40:39.550Z,32.80
2023-11-22T22:43:07.259Z,24.10
2023-11-22T22:45:34.776Z,25.30
2023-11-22T22:48:02.860Z,20.50
2023-11-22T22:50:30.885Z,21.50
2023-11-22T22:52:59.038Z,30.10
2023-11-22T22:55:26.610Z,29.10
2023-11-22T22:57:54.191Z,28.50
2023-11-22T23:00:45.053Z,26.70
2023-11-22T23:03:13.283Z,27.80
2023-11-22T23:05:41.260Z,22.50
2023-11-22T23:08:10.083Z,34.40
2023-11-22T23:10:37.675Z,25.70
2023-11-22T23:13:06.947Z,22.80
2023-11-22T23:15:34.553Z,21.90
2023-11-22T23:18:03.677Z,23.40
2023-11-22T23:20:44.071Z,21.00
2023-11-22T23:23:17.761Z,18.80
2023-11-22T23:25:45.604Z,24.20
2023-11-22T23:28:13.210Z,21.50
2023-11-22T23:30:40.879Z,23.10
2023-11-22T23:33:08.787Z,21.10
2023-11-22T23:35:37.838Z,20.50
2023-11-22T23:38:07.281Z,18.70
2023-11-22T23:40:35.067Z,17.80
2023-11-22T23:43:04.768Z,20.90
2023-11-22T23:45:33.689Z,24.30
2023-11-22T23:48:01.803Z,22.70
2023-11-22T23:50:29.552Z,22.20
2023-11-22T23:52:57.116Z,27.80
2023-11-22T23:55:25.228Z,29.80
2023-11-22T23:57:52.787Z,25.30
